createdAt,value
2023-04-01T00:00:44.994Z,0.00
2023-04-01T00:01:44.966Z,0.00
2023-04-01T00:02:45.070Z,0.00
2023-04-01T00:03:45.083Z,0.00
2023-04-01T00:04:44.952Z,0.00
2023-04-01T00:05:44.915Z,0.00
2023-04-01T00:06:44.951Z,0.00
2023-04-01T00:07:44.906Z,0.00
2023-04-01T00:08:44.886Z,0.00
2023-04-01T00:09:44.888Z,0.00
2023-04-01T00:10:44.873Z,0.00
2023-04-01T00:11:44.849Z,0.00
2023-04-01T00:12:44.844Z,0.00
2023-04-01T00:13:44.839Z,0.00
2023-04-01T00:14:44.821Z,0.00
2023-04-01T00:15:44.847Z,0.00
2023-04-01T00:16:44.873Z,0.00
2023-04-01T00:17:44.821Z,0.00
2023-04-01T00:18:44.778Z,0.00
2023-04-01T00:19:44.783Z,0.00
2023-04-01T00:20:44.766Z,0.00
2023-04-01T00:21:44.749Z,0.00
2023-04-01T00:22:44.733Z,0.00
2023-04-01T00:23:44.936Z,0.00
2023-04-01T00:24:44.714Z,0.00
2023-04-01T00:25:44.726Z,0.00
2023-04-01T00:26:44.682Z,0.00
2023-04-01T00:27:44.670Z,0.00
2023-04-01T00:28:44.668Z,0.00
2023-04-01T00:29:44.651Z,0.00
2023-04-01T00:30:44.688Z,0.00
2023-04-01T00:31:44.700Z,0.00
2023-04-01T00:32:44.731Z,0.00
2023-04-01T00:33:44.614Z,0.00
2023-04-01T00:34:44.600Z,0.00
2023-04-01T00:35:44.619Z,0.00
2023-04-01T00:36:44.589Z,0.00
2023-04-01T00:37:44.563Z,0.00
2023-04-01T00:38:44.557Z,0.00
2023-04-01T00:39:44.551Z,0.00
2023-04-01T00:40:44.545Z,0.00
2023-04-01T00:41:44.540Z,0.00
2023-04-01T00:42:44.505Z,0.00
2023-04-01T00:43:44.568Z,0.00
2023-04-01T00:44:44.484Z,0.00
2023-04-01T00:45:44.484Z,0.00
2023-04-01T00:46:44.547Z,0.00
2023-04-01T00:47:44.514Z,0.00
2023-04-01T00:48:44.464Z,0.00
2023-04-01T00:49:44.431Z,0.00
2023-04-01T00:50:44.416Z,0.00
2023-04-01T00:51:44.417Z,0.00
2023-04-01T00:52:44.405Z,0.00
2023-04-01T00:53:44.398Z,0.00
2023-04-01T00:54:44.381Z,0.00
2023-04-01T00:55:44.366Z,0.00
2023-04-01T00:56:44.394Z,0.00
2023-04-01T00:57:44.345Z,0.00
2023-04-01T00:58:44.336Z,0.00
2023-04-01T00:59:44.321Z,0.00
2023-04-01T01:00:44.351Z,0.00
2023-04-01T01:01:44.339Z,0.00
2023-04-01T01:02:44.371Z,0.00
2023-04-01T01:03:44.282Z,0.00
2023-04-01T01:04:44.282Z,0.00
2023-04-01T01:05:49.586Z,0.00
2023-04-01T01:06:45.251Z,0.00
2023-04-01T01:07:44.247Z,0.00
2023-04-01T01:08:44.213Z,0.00
2023-04-01T01:09:44.212Z,0.00
2023-04-01T01:10:44.201Z,0.00
2023-04-01T01:11:44.287Z,0.00
2023-04-01T01:12:44.171Z,0.00
2023-04-01T01:13:44.169Z,0.00
2023-04-01T01:14:44.145Z,0.00
2023-04-01T01:15:44.141Z,0.00
2023-04-01T01:16:44.229Z,0.00
2023-04-01T01:17:44.190Z,0.00
2023-04-01T01:18:44.103Z,0.00
2023-04-01T01:19:44.107Z,0.00
2023-04-01T01:20:44.111Z,0.00
2023-04-01T01:21:44.076Z,0.00
2023-04-01T01:22:44.063Z,0.00
2023-04-01T01:23:44.058Z,0.00
2023-04-01T01:24:44.037Z,0.00
2023-04-01T01:25:44.028Z,0.00
2023-04-01T01:26:44.011Z,0.00
2023-04-01T01:27:44.022Z,0.00
2023-04-01T01:28:43.996Z,0.00
2023-04-01T01:29:43.987Z,0.00
2023-04-01T01:30:44.015Z,0.00
2023-04-01T01:31:43.961Z,0.00
2023-04-01T01:32:44.012Z,0.00
2023-04-01T01:33:43.973Z,0.00
2023-04-01T01:34:43.928Z,0.00
2023-04-01T01:35:43.931Z,0.00
2023-04-01T01:36:43.925Z,0.00
2023-04-01T01:37:43.897Z,0.00
2023-04-01T01:38:43.898Z,0.00
2023-04-01T01:39:43.874Z,0.00
2023-04-01T01:40:43.868Z,0.00
2023-04-01T01:41:43.848Z,0.00
2023-04-01T01:42:43.830Z,0.00
2023-04-01T01:43:43.843Z,0.00
2023-04-01T01:44:43.810Z,0.00
2023-04-01T01:45:43.835Z,0.00
2023-04-01T01:46:43.799Z,0.00
2023-04-01T01:47:43.818Z,0.00
2023-04-01T01:48:43.781Z,0.00
2023-04-01T01:49:43.773Z,0.00
2023-04-01T01:50:43.755Z,0.00
2023-04-01T01:51:43.736Z,0.00
2023-04-01T01:52:43.738Z,0.00
2023-04-01T01:53:43.711Z,0.00
2023-04-01T01:54:43.713Z,0.00
2023-04-01T01:55:43.689Z,0.00
2023-04-01T01:56:43.679Z,0.00
2023-04-01T01:57:43.668Z,0.00
2023-04-01T01:58:43.680Z,0.00
2023-04-01T01:59:43.650Z,0.00
2023-04-01T02:00:43.623Z,0.00
2023-04-01T02:01:43.644Z,0.00
2023-04-01T02:02:43.738Z,0.00
2023-04-01T02:03:43.606Z,0.00
2023-04-01T02:04:43.641Z,0.00
2023-04-01T02:05:43.581Z,0.00
2023-04-01T02:06:43.595Z,0.00
2023-04-01T02:07:43.580Z,0.00
2023-04-01T02:08:46.338Z,0.00
2023-04-01T02:09:43.524Z,0.00
2023-04-01T02:10:43.521Z,0.00
2023-04-01T02:11:43.614Z,0.00
2023-04-01T02:12:43.510Z,0.00
2023-04-01T02:13:43.484Z,0.00
2023-04-01T02:14:43.472Z,0.00
2023-04-01T02:15:43.484Z,0.00
2023-04-01T02:16:43.446Z,0.00
2023-04-01T02:17:43.498Z,0.00
2023-04-01T02:18:43.441Z,0.00
2023-04-01T02:19:43.422Z,0.00
2023-04-01T02:20:43.418Z,0.00
2023-04-01T02:21:43.391Z,0.00
2023-04-01T02:22:43.386Z,0.00
2023-04-01T02:23:43.394Z,0.00
2023-04-01T02:24:43.379Z,0.00
2023-04-01T02:25:43.361Z,0.00
2023-04-01T02:26:43.333Z,0.00
2023-04-01T02:27:43.326Z,0.00
2023-04-01T02:28:43.328Z,0.00
2023-04-01T02:29:43.332Z,0.00
2023-04-01T02:30:43.309Z,0.00
2023-04-01T02:31:43.308Z,0.00
2023-04-01T02:32:43.292Z,0.00
2023-04-01T02:33:43.253Z,0.00
2023-04-01T02:34:43.257Z,0.00
2023-04-01T02:35:43.260Z,0.00
2023-04-01T02:36:43.234Z,0.00
2023-04-01T02:37:43.247Z,0.00
2023-04-01T02:38:43.208Z,0.00
2023-04-01T02:39:43.213Z,0.00
2023-04-01T02:40:43.209Z,0.00
2023-04-01T02:41:43.172Z,0.00
2023-04-01T02:42:43.170Z,0.00
2023-04-01T02:43:43.156Z,0.00
2023-04-01T02:44:43.138Z,0.00
2023-04-01T02:45:43.145Z,0.00
2023-04-01T02:46:43.144Z,0.00
2023-04-01T02:47:43.140Z,0.00
2023-04-01T02:48:43.100Z,0.00
2023-04-01T02:49:43.105Z,0.00
2023-04-01T02:50:43.072Z,0.00
2023-04-01T02:51:43.055Z,0.00
2023-04-01T02:52:43.053Z,0.00
2023-04-01T02:53:43.032Z,0.00
2023-04-01T02:54:43.039Z,0.00
2023-04-01T02:55:43.022Z,0.00
2023-04-01T02:56:43.024Z,0.00
2023-04-01T02:57:42.993Z,0.00
2023-04-01T02:58:42.996Z,0.00
2023-04-01T02:59:42.969Z,0.00
2023-04-01T03:00:43.032Z,0.00
2023-04-01T03:01:42.956Z,0.00
2023-04-01T03:02:43.046Z,0.00
2023-04-01T03:03:42.923Z,0.00
2023-04-01T03:04:42.919Z,0.00
2023-04-01T03:05:42.906Z,0.00
2023-04-01T03:06:42.891Z,0.00
2023-04-01T03:07:42.887Z,0.00
2023-04-01T03:08:42.870Z,0.00
2023-04-01T03:09:42.868Z,0.00
2023-04-01T03:10:42.851Z,0.00
2023-04-01T03:11:42.834Z,0.00
2023-04-01T03:12:42.843Z,0.00
2023-04-01T03:13:42.821Z,0.00
2023-04-01T03:14:42.795Z,0.00
2023-04-01T03:15:42.812Z,0.00
2023-04-01T03:16:42.840Z,0.00
2023-04-01T03:17:42.832Z,0.00
2023-04-01T03:18:42.751Z,0.00
2023-04-01T03:19:42.743Z,0.00
2023-04-01T03:20:42.736Z,0.00
2023-04-01T03:21:42.744Z,0.00
2023-04-01T03:22:43.160Z,0.00
2023-04-01T03:23:42.696Z,0.00
2023-04-01T03:24:42.693Z,0.00
2023-04-01T03:25:42.679Z,0.00
2023-04-01T03:26:42.673Z,0.00
2023-04-01T03:27:42.669Z,0.00
2023-04-01T03:28:42.663Z,0.00
2023-04-01T03:29:42.633Z,0.00
2023-04-01T03:30:42.725Z,0.00
2023-04-01T03:31:42.607Z,0.00
2023-04-01T03:32:42.639Z,0.00
2023-04-01T03:33:42.607Z,0.00
2023-04-01T03:34:42.572Z,0.00
2023-04-01T03:35:42.569Z,0.00
2023-04-01T03:36:42.618Z,0.00
2023-04-01T03:37:42.538Z,0.00
2023-04-01T03:38:42.538Z,0.00
2023-04-01T03:39:43.481Z,0.00
2023-04-01T03:40:42.519Z,0.00
2023-04-01T03:41:42.505Z,0.00
2023-04-01T03:42:42.523Z,0.00
2023-04-01T03:43:42.476Z,0.00
2023-04-01T03:44:42.480Z,0.00
2023-04-01T03:45:42.444Z,0.00
2023-04-01T03:46:42.466Z,0.00
2023-04-01T03:47:42.448Z,0.00
2023-04-01T03:48:42.416Z,0.00
2023-04-01T03:49:42.406Z,0.00
2023-04-01T03:50:42.381Z,0.00
2023-04-01T03:51:42.387Z,0.00
2023-04-01T03:52:42.370Z,0.00
2023-04-01T03:53:42.364Z,0.00
2023-04-01T03:54:42.365Z,0.00
2023-04-01T03:55:42.331Z,0.00
2023-04-01T03:56:42.319Z,0.00
2023-04-01T03:57:42.312Z,0.00
2023-04-01T03:58:42.306Z,0.00
2023-04-01T03:59:42.299Z,0.00
2023-04-01T04:00:42.317Z,0.00
2023-04-01T04:01:42.267Z,0.00
2023-04-01T04:02:42.377Z,0.00
2023-04-01T04:03:42.319Z,0.00
2023-04-01T04:04:42.349Z,0.00
2023-04-01T04:05:42.225Z,0.00
2023-04-01T04:06:42.204Z,0.00
2023-04-01T04:07:42.205Z,0.00
2023-04-01T04:08:42.202Z,0.00
2023-04-01T04:09:42.174Z,0.00
2023-04-01T04:10:42.181Z,0.00
2023-04-01T04:11:42.154Z,0.00
2023-04-01T04:12:42.137Z,0.00
2023-04-01T04:13:42.142Z,0.00
2023-04-01T04:14:42.119Z,0.00
2023-04-01T04:15:42.127Z,0.00
2023-04-01T04:16:42.148Z,0.00
2023-04-01T04:17:42.187Z,0.00
2023-04-01T04:18:42.076Z,0.00
2023-04-01T04:19:42.064Z,0.00
2023-04-01T04:20:42.070Z,0.00
2023-04-01T04:21:42.082Z,0.00
2023-04-01T04:22:42.063Z,0.00
2023-04-01T04:23:42.025Z,0.00
2023-04-01T04:24:42.005Z,0.00
2023-04-01T04:25:42.005Z,0.00
2023-04-01T04:26:42.015Z,0.00
2023-04-01T04:27:41.982Z,0.00
2023-04-01T04:28:41.969Z,0.00
2023-04-01T04:29:41.969Z,0.00
2023-04-01T04:30:41.937Z,0.00
2023-04-01T04:31:41.962Z,0.00
2023-04-01T04:32:41.977Z,0.00
2023-04-01T04:33:41.911Z,0.00
2023-04-01T04:34:41.893Z,0.00
2023-04-01T04:35:41.890Z,0.00
2023-04-01T04:36:41.872Z,0.00
2023-04-01T04:37:41.888Z,0.00
2023-04-01T04:38:41.845Z,0.00
2023-04-01T04:39:41.844Z,0.00
2023-04-01T04:40:41.836Z,0.00
2023-04-01T04:41:41.815Z,0.00
2023-04-01T04:42:41.801Z,0.00
2023-04-01T04:43:41.814Z,0.00
2023-04-01T04:44:41.775Z,0.00
2023-04-01T04:45:41.780Z,0.00
2023-04-01T04:46:41.785Z,0.00
2023-04-01T04:47:41.776Z,0.00
2023-04-01T04:48:41.769Z,0.00
2023-04-01T04:49:41.745Z,0.00
2023-04-01T04:50:41.721Z,0.00
2023-04-01T04:51:41.712Z,0.00
2023-04-01T04:52:41.690Z,0.00
2023-04-01T04:53:41.695Z,0.00
2023-04-01T04:54:41.687Z,0.00
2023-04-01T04:55:41.656Z,0.00
2023-04-01T04:56:41.643Z,4.00
2023-04-01T04:57:41.637Z,4.00
2023-04-01T04:58:41.656Z,0.00
2023-04-01T04:59:41.616Z,0.00
2023-04-01T05:00:41.624Z,0.00
2023-04-01T05:01:41.755Z,4.00
2023-04-01T05:02:41.657Z,4.00
2023-04-01T05:03:41.654Z,0.00
2023-04-01T05:04:41.611Z,0.00
2023-04-01T05:05:41.552Z,4.00
2023-04-01T05:06:41.551Z,4.00
2023-04-01T05:07:41.519Z,4.00
2023-04-01T05:08:41.535Z,4.00
2023-04-01T05:09:41.496Z,4.00
2023-04-01T05:10:41.497Z,4.00
2023-04-01T05:11:41.482Z,8.00
2023-04-01T05:12:41.493Z,4.00
2023-04-01T05:13:41.450Z,4.00
2023-04-01T05:14:41.453Z,8.00
2023-04-01T05:15:41.437Z,8.00
2023-04-01T05:16:41.488Z,8.00
2023-04-01T05:17:41.435Z,8.00
2023-04-01T05:18:41.402Z,12.00
2023-04-01T05:19:41.395Z,8.00
2023-04-01T05:20:41.395Z,12.00
2023-04-01T05:21:41.362Z,12.00
2023-04-01T05:22:41.414Z,12.00
2023-04-01T05:23:41.357Z,16.00
2023-04-01T05:24:41.331Z,12.00
2023-04-01T05:25:41.332Z,16.00
2023-04-01T05:26:41.311Z,16.00
2023-04-01T05:27:41.292Z,16.00
2023-04-01T05:28:41.289Z,12.00
2023-04-01T05:29:41.284Z,20.00
2023-04-01T05:30:41.309Z,20.00
2023-04-01T05:31:41.261Z,24.00
2023-04-01T05:32:41.270Z,24.00
2023-04-01T05:33:41.225Z,24.00
2023-04-01T05:34:41.217Z,28.00
2023-04-01T05:35:41.242Z,24.00
2023-04-01T05:36:41.312Z,32.00
2023-04-01T05:37:41.186Z,32.00
2023-04-01T05:38:41.177Z,36.00
2023-04-01T05:39:41.161Z,32.00
2023-04-01T05:40:41.164Z,44.00
2023-04-01T05:41:41.164Z,36.00
2023-04-01T05:42:41.145Z,44.00
2023-04-01T05:43:41.123Z,36.00
2023-04-01T05:44:41.107Z,48.00
2023-04-01T05:45:41.104Z,40.00
2023-04-01T05:46:41.158Z,52.00
2023-04-01T05:47:41.091Z,40.00
2023-04-01T05:48:41.072Z,56.00
2023-04-01T05:49:41.090Z,48.00
2023-04-01T05:50:41.073Z,64.00
2023-04-01T05:51:48.173Z,52.00
2023-04-01T05:52:41.016Z,72.00
2023-04-01T05:53:41.003Z,56.00
2023-04-01T05:54:41.005Z,80.00
2023-04-01T05:55:41.009Z,64.00
2023-04-01T05:56:40.979Z,96.00
2023-04-01T05:57:41.045Z,76.00
2023-04-01T05:58:40.969Z,104.00
2023-04-01T05:59:40.941Z,84.00
2023-04-01T06:00:40.929Z,108.00
2023-04-01T06:01:40.925Z,88.00
2023-04-01T06:02:41.045Z,116.00
2023-04-01T06:03:41.079Z,96.00
2023-04-01T06:04:40.929Z,116.00
2023-04-01T06:05:40.883Z,108.00
2023-04-01T06:06:40.860Z,124.00
2023-04-01T06:07:40.888Z,116.00
2023-04-01T06:08:40.840Z,120.00
2023-04-01T06:09:40.819Z,128.00
2023-04-01T06:10:40.816Z,132.00
2023-04-01T06:11:40.809Z,148.00
2023-04-01T06:12:40.815Z,128.00
2023-04-01T06:13:40.785Z,152.00
2023-04-01T06:14:40.782Z,132.00
2023-04-01T06:15:40.778Z,164.00
2023-04-01T06:16:40.918Z,124.00
2023-04-01T06:17:40.745Z,168.00
2023-04-01T06:18:40.758Z,144.00
2023-04-01T06:19:40.709Z,164.00
2023-04-01T06:20:40.701Z,164.00
2023-04-01T06:21:40.703Z,164.00
2023-04-01T06:22:40.711Z,172.00
2023-04-01T06:23:40.701Z,152.00
2023-04-01T06:24:40.704Z,184.00
2023-04-01T06:25:40.653Z,160.00
2023-04-01T06:26:40.684Z,208.00
2023-04-01T06:27:40.645Z,176.00
2023-04-01T06:28:40.612Z,208.00
2023-04-01T06:29:40.635Z,196.00
2023-04-01T06:30:40.603Z,200.00
2023-04-01T06:31:40.913Z,216.00
2023-04-01T06:32:40.590Z,192.00
2023-04-01T06:33:40.577Z,236.00
2023-04-01T06:34:40.575Z,200.00
2023-04-01T06:35:40.622Z,244.00
2023-04-01T06:36:40.562Z,204.00
2023-04-01T06:37:40.536Z,220.00
2023-04-01T06:38:40.502Z,208.00
2023-04-01T06:39:40.517Z,212.00
2023-04-01T06:40:40.520Z,224.00
2023-04-01T06:41:40.474Z,208.00
2023-04-01T06:42:40.475Z,252.00
2023-04-01T06:43:40.453Z,204.00
2023-04-01T06:44:40.440Z,272.00
2023-04-01T06:45:40.465Z,232.00
2023-04-01T06:46:40.418Z,252.00
2023-04-01T06:47:41.002Z,240.00
2023-04-01T06:48:40.407Z,236.00
2023-04-01T06:49:40.378Z,284.00
2023-04-01T06:50:40.370Z,272.00
2023-04-01T06:51:40.376Z,340.00
2023-04-01T06:52:40.349Z,284.00
2023-04-01T06:53:40.349Z,320.00
2023-04-01T06:54:40.325Z,272.00
2023-04-01T06:55:40.333Z,304.00
2023-04-01T06:56:40.316Z,284.00
2023-04-01T06:57:40.285Z,284.00
2023-04-01T06:58:40.285Z,316.00
2023-04-01T06:59:40.261Z,296.00
2023-04-01T07:00:40.285Z,336.00
2023-04-01T07:01:40.325Z,304.00
2023-04-01T07:02:40.262Z,384.00
2023-04-01T07:03:40.215Z,340.00
2023-04-01T07:04:40.250Z,316.00
2023-04-01T07:05:40.215Z,328.00
2023-04-01T07:06:40.184Z,324.00
2023-04-01T07:07:40.177Z,372.00
2023-04-01T07:08:40.178Z,372.00
2023-04-01T07:09:40.227Z,420.00
2023-04-01T07:10:40.144Z,388.00
2023-04-01T07:11:40.155Z,456.00
2023-04-01T07:12:40.132Z,396.00
2023-04-01T07:13:40.119Z,484.00
2023-04-01T07:14:40.105Z,496.00
2023-04-01T07:15:40.080Z,504.00
2023-04-01T07:16:40.130Z,496.00
2023-04-01T07:17:40.137Z,472.00
2023-04-01T07:18:40.066Z,556.00
2023-04-01T07:19:40.053Z,516.00
2023-04-01T07:20:40.056Z,572.00
2023-04-01T07:21:40.018Z,548.00
2023-04-01T07:22:40.015Z,584.00
2023-04-01T07:23:39.999Z,572.00
2023-04-01T07:24:40.018Z,572.00
2023-04-01T07:25:39.977Z,576.00
2023-04-01T07:26:39.970Z,564.00
2023-04-01T07:27:39.965Z,564.00
2023-04-01T07:28:39.941Z,512.00
2023-04-01T07:29:39.934Z,580.00
2023-04-01T07:30:39.927Z,524.00
2023-04-01T07:31:39.900Z,580.00
2023-04-01T07:32:39.934Z,520.00
2023-04-01T07:33:39.880Z,536.00
2023-04-01T07:34:39.884Z,540.00
2023-04-01T07:35:39.910Z,548.00
2023-04-01T07:36:39.863Z,548.00
2023-04-01T07:37:39.851Z,464.00
2023-04-01T07:38:39.890Z,516.00
2023-04-01T07:39:39.832Z,456.00
2023-04-01T07:40:39.820Z,564.00
2023-04-01T07:41:39.786Z,564.00
2023-04-01T07:42:39.783Z,536.00
2023-04-01T07:43:39.783Z,600.00
2023-04-01T07:44:39.767Z,552.00
2023-04-01T07:45:39.765Z,652.00
2023-04-01T07:46:39.815Z,628.00
2023-04-01T07:47:39.806Z,648.00
2023-04-01T07:48:39.713Z,740.00
2023-04-01T07:49:39.700Z,784.00
2023-04-01T07:50:39.710Z,836.00
2023-04-01T07:51:39.703Z,760.00
2023-04-01T07:52:39.679Z,820.00
2023-04-01T07:53:39.657Z,736.00
2023-04-01T07:54:39.646Z,668.00
2023-04-01T07:55:39.640Z,660.00
2023-04-01T07:56:39.636Z,616.00
2023-04-01T07:57:39.614Z,652.00
2023-04-01T07:58:39.599Z,568.00
2023-04-01T07:59:39.614Z,624.00
2023-04-01T08:00:39.589Z,608.00
2023-04-01T08:01:39.576Z,660.00
2023-04-01T08:02:39.648Z,672.00
2023-04-01T08:03:39.688Z,628.00
2023-04-01T08:04:39.578Z,760.00
2023-04-01T08:05:39.519Z,740.00
2023-04-01T08:06:39.508Z,884.00
2023-04-01T08:07:39.511Z,888.00
2023-04-01T08:08:39.486Z,868.00
2023-04-01T08:09:39.477Z,948.00
2023-04-01T08:10:39.492Z,904.00
2023-04-01T08:11:41.231Z,1096.00
2023-04-01T08:12:39.492Z,1056.00
2023-04-01T08:13:39.436Z,1144.00
2023-04-01T08:14:39.427Z,1060.00
2023-04-01T08:15:39.436Z,960.00
2023-04-01T08:16:39.604Z,972.00
2023-04-01T08:17:39.414Z,816.00
2023-04-01T08:18:39.393Z,896.00
2023-04-01T08:19:39.363Z,812.00
2023-04-01T08:20:39.348Z,772.00
2023-04-01T08:21:39.340Z,748.00
2023-04-01T08:22:39.331Z,680.00
2023-04-01T08:23:39.315Z,712.00
2023-04-01T08:24:47.184Z,668.00
2023-04-01T08:25:40.304Z,820.00
2023-04-01T08:26:39.276Z,804.00
2023-04-01T08:27:39.289Z,832.00
2023-04-01T08:28:39.257Z,824.00
2023-04-01T08:29:39.261Z,780.00
2023-04-01T08:30:39.232Z,988.00
2023-04-01T08:31:39.365Z,1020.00
2023-04-01T08:32:39.229Z,1152.00
2023-04-01T08:33:39.213Z,1140.00
2023-04-01T08:34:39.193Z,1164.00
2023-04-01T08:35:39.730Z,1300.00
2023-04-01T08:36:39.172Z,1448.00
2023-04-01T08:37:39.174Z,1548.00
2023-04-01T08:38:39.166Z,1460.00
2023-04-01T08:39:39.128Z,1420.00
2023-04-01T08:40:39.128Z,1428.00
2023-04-01T08:41:39.107Z,1360.00
2023-04-01T08:42:39.121Z,1376.00
2023-04-01T08:43:39.086Z,1204.00
2023-04-01T08:44:39.081Z,1160.00
2023-04-01T08:45:39.133Z,1144.00
2023-04-01T08:46:39.062Z,1084.00
2023-04-01T08:47:39.105Z,1116.00
2023-04-01T08:48:39.030Z,980.00
2023-04-01T08:49:39.015Z,956.00
2023-04-01T08:50:39.048Z,840.00
2023-04-01T08:51:39.016Z,716.00
2023-04-01T08:52:38.984Z,736.00
2023-04-01T08:53:38.983Z,612.00
2023-04-01T08:54:38.979Z,592.00
2023-04-01T08:55:38.955Z,600.00
2023-04-01T08:56:38.941Z,584.00
2023-04-01T08:57:38.934Z,656.00
2023-04-01T08:58:38.928Z,632.00
2023-04-01T08:59:38.906Z,708.00
2023-04-01T09:00:38.902Z,748.00
2023-04-01T09:01:38.888Z,744.00
2023-04-01T09:02:38.981Z,864.00
2023-04-01T09:03:39.049Z,856.00
2023-04-01T09:04:38.897Z,860.00
2023-04-01T09:05:38.863Z,928.00
2023-04-01T09:06:38.860Z,896.00
2023-04-01T09:07:38.826Z,1008.00
2023-04-01T09:08:38.808Z,980.00
2023-04-01T09:09:38.830Z,984.00
2023-04-01T09:10:38.797Z,1056.00
2023-04-01T09:11:38.794Z,1028.00
2023-04-01T09:12:38.761Z,1068.00
2023-04-01T09:13:38.756Z,1068.00
2023-04-01T09:14:38.751Z,976.00
2023-04-01T09:15:38.760Z,1012.00
2023-04-01T09:16:38.721Z,1016.00
2023-04-01T09:17:38.731Z,1008.00
2023-04-01T09:18:38.698Z,1000.00
2023-04-01T09:19:38.702Z,908.00
2023-04-01T09:20:38.687Z,892.00
2023-04-01T09:21:38.678Z,880.00
2023-04-01T09:22:38.654Z,816.00
2023-04-01T09:23:38.654Z,856.00
2023-04-01T09:24:38.629Z,772.00
2023-04-01T09:25:38.623Z,752.00
2023-04-01T09:26:38.629Z,756.00
2023-04-01T09:27:38.606Z,668.00
2023-04-01T09:28:38.635Z,652.00
2023-04-01T09:29:38.577Z,672.00
2023-04-01T09:30:38.565Z,620.00
2023-04-01T09:31:38.625Z,612.00
2023-04-01T09:32:38.590Z,624.00
2023-04-01T09:33:38.542Z,612.00
2023-04-01T09:34:38.526Z,704.00
2023-04-01T09:35:38.555Z,664.00
2023-04-01T09:36:38.499Z,724.00
2023-04-01T09:37:38.500Z,760.00
2023-04-01T09:38:38.475Z,740.00
2023-04-01T09:39:38.625Z,824.00
2023-04-01T09:40:38.470Z,900.00
2023-04-01T09:41:38.457Z,900.00
2023-04-01T09:42:38.460Z,1000.00
2023-04-01T09:43:38.421Z,960.00
2023-04-01T09:44:38.409Z,988.00
2023-04-01T09:45:38.399Z,1016.00
2023-04-01T09:46:38.449Z,964.00
2023-04-01T09:47:38.416Z,1024.00
2023-04-01T09:48:38.364Z,1016.00
2023-04-01T09:49:38.352Z,964.00
2023-04-01T09:50:38.341Z,1084.00
2023-04-01T09:51:38.356Z,1064.00
2023-04-01T09:52:38.323Z,1024.00
2023-04-01T09:53:38.313Z,1076.00
2023-04-01T09:54:38.294Z,988.00
2023-04-01T09:55:38.303Z,996.00
2023-04-01T09:56:38.274Z,1016.00
2023-04-01T09:57:38.275Z,860.00
2023-04-01T09:58:44.024Z,940.00
2023-04-01T09:59:38.240Z,876.00
2023-04-01T10:00:38.221Z,816.00
2023-04-01T10:01:38.298Z,844.00
2023-04-01T10:02:38.207Z,748.00
2023-04-01T10:03:38.204Z,672.00
2023-04-01T10:04:38.181Z,744.00
2023-04-01T10:05:38.190Z,640.00
2023-04-01T10:06:38.158Z,700.00
2023-04-01T10:07:38.167Z,672.00
2023-04-01T10:08:38.145Z,620.00
2023-04-01T10:09:38.123Z,708.00
2023-04-01T10:10:38.113Z,660.00
2023-04-01T10:11:38.100Z,752.00
2023-04-01T10:12:38.095Z,740.00
2023-04-01T10:13:38.070Z,724.00
2023-04-01T10:14:38.064Z,840.00
2023-04-01T10:15:38.093Z,780.00
2023-04-01T10:16:38.150Z,840.00
2023-04-01T10:17:38.077Z,916.00
2023-04-01T10:18:38.016Z,824.00
2023-04-01T10:19:38.023Z,920.00
2023-04-01T10:20:37.993Z,900.00
2023-04-01T10:21:37.987Z,860.00
2023-04-01T10:22:37.977Z,928.00
2023-04-01T10:23:37.981Z,832.00
2023-04-01T10:24:37.956Z,876.00
2023-04-01T10:25:37.937Z,900.00
2023-04-01T10:26:37.937Z,852.00
2023-04-01T10:27:37.945Z,956.00
2023-04-01T10:28:37.907Z,924.00
2023-04-01T10:29:37.913Z,952.00
2023-04-01T10:30:37.892Z,996.00
2023-04-01T10:31:37.953Z,928.00
2023-04-01T10:32:37.911Z,1000.00
2023-04-01T10:33:37.851Z,1000.00
2023-04-01T10:34:37.845Z,1004.00
2023-04-01T10:35:37.901Z,1068.00
2023-04-01T10:36:37.824Z,1004.00
2023-04-01T10:37:37.811Z,968.00
2023-04-01T10:38:37.793Z,1092.00
2023-04-01T10:39:37.803Z,984.00
2023-04-01T10:40:37.761Z,1096.00
2023-04-01T10:41:37.771Z,1116.00
2023-04-01T10:42:37.750Z,1104.00
2023-04-01T10:43:37.742Z,1188.00
2023-04-01T10:44:37.717Z,1240.00
2023-04-01T10:45:37.771Z,1204.00
2023-04-01T10:46:38.012Z,1320.00
2023-04-01T10:47:37.746Z,1288.00
2023-04-01T10:48:38.385Z,1316.00
2023-04-01T10:49:37.673Z,1368.00
2023-04-01T10:50:37.649Z,1324.00
2023-04-01T10:51:37.641Z,1324.00
2023-04-01T10:52:37.631Z,1476.00
2023-04-01T10:53:37.621Z,1428.00
2023-04-01T10:54:37.609Z,1416.00
2023-04-01T10:55:37.624Z,1520.00
2023-04-01T10:56:37.602Z,1452.00
2023-04-01T10:57:37.622Z,1424.00
2023-04-01T10:58:37.576Z,1512.00
2023-04-01T10:59:37.559Z,1456.00
2023-04-01T11:00:37.544Z,1348.00
2023-04-01T11:01:37.583Z,1372.00
2023-04-01T11:02:37.552Z,1412.00
2023-04-01T11:03:37.583Z,1252.00
2023-04-01T11:04:37.508Z,1276.00
2023-04-01T11:05:37.492Z,1336.00
2023-04-01T11:06:37.495Z,1232.00
2023-04-01T11:07:37.458Z,1240.00
2023-04-01T11:08:37.467Z,1332.00
2023-04-01T11:09:37.448Z,1180.00
2023-04-01T11:10:37.433Z,1208.00
2023-04-01T11:11:37.434Z,1280.00
2023-04-01T11:12:37.414Z,1212.00
2023-04-01T11:13:37.396Z,1172.00
2023-04-01T11:14:37.402Z,1232.00
2023-04-01T11:15:37.406Z,1176.00
2023-04-01T11:16:37.463Z,1240.00
2023-04-01T11:17:37.386Z,1356.00
2023-04-01T11:18:37.339Z,1372.00
2023-04-01T11:19:37.325Z,1360.00
2023-04-01T11:20:37.322Z,1460.00
2023-04-01T11:21:37.300Z,1328.00
2023-04-01T11:22:37.298Z,1244.00
2023-04-01T11:23:37.275Z,1324.00
2023-04-01T11:24:37.278Z,1360.00
2023-04-01T11:25:37.280Z,1280.00
2023-04-01T11:26:37.268Z,1296.00
2023-04-01T11:27:39.449Z,1320.00
2023-04-01T11:28:37.229Z,1248.00
2023-04-01T11:29:38.942Z,1240.00
2023-04-01T11:30:37.194Z,1276.00
2023-04-01T11:31:37.204Z,1264.00
2023-04-01T11:32:37.249Z,1332.00
2023-04-01T11:33:37.166Z,1300.00
2023-04-01T11:34:37.157Z,1300.00
2023-04-01T11:35:37.152Z,1348.00
2023-04-01T11:36:37.219Z,1296.00
2023-04-01T11:37:37.130Z,1264.00
2023-04-01T11:38:37.118Z,1272.00
2023-04-01T11:39:37.111Z,1336.00
2023-04-01T11:40:37.079Z,1216.00
2023-04-01T11:41:37.078Z,1148.00
2023-04-01T11:42:37.059Z,1132.00
2023-04-01T11:43:37.069Z,1080.00
2023-04-01T11:44:37.073Z,972.00
2023-04-01T11:45:37.034Z,984.00
2023-04-01T11:46:37.111Z,1024.00
2023-04-01T11:47:37.043Z,956.00
2023-04-01T11:48:37.000Z,940.00
2023-04-01T11:49:37.008Z,1036.00
2023-04-01T11:50:36.968Z,1116.00
2023-04-01T11:51:36.969Z,1088.00
2023-04-01T11:52:44.057Z,1136.00
2023-04-01T11:53:36.939Z,1168.00
2023-04-01T11:54:36.929Z,1160.00
2023-04-01T11:55:36.927Z,1200.00
2023-04-01T11:56:36.936Z,1284.00
2023-04-01T11:57:36.893Z,1276.00
2023-04-01T11:58:36.877Z,1268.00
2023-04-01T11:59:36.892Z,1328.00
2023-04-01T12:00:36.862Z,1192.00
2023-04-01T12:01:36.852Z,1084.00
2023-04-01T12:02:36.903Z,1080.00
2023-04-01T12:03:37.142Z,1080.00
2023-04-01T12:04:36.873Z,940.00
2023-04-01T12:05:36.820Z,896.00
2023-04-01T12:06:36.786Z,972.00
2023-04-01T12:07:36.779Z,864.00
2023-04-01T12:08:36.788Z,844.00
2023-04-01T12:09:36.761Z,840.00
2023-04-01T12:10:36.746Z,752.00
2023-04-01T12:11:36.763Z,692.00
2023-04-01T12:12:36.718Z,572.00
2023-04-01T12:13:36.708Z,496.00
2023-04-01T12:14:36.701Z,408.00
2023-04-01T12:15:36.734Z,424.00
2023-04-01T12:16:36.700Z,452.00
2023-04-01T12:17:36.710Z,432.00
2023-04-01T12:18:36.652Z,516.00
2023-04-01T12:19:36.652Z,500.00
2023-04-01T12:20:36.640Z,428.00
2023-04-01T12:21:36.630Z,480.00
2023-04-01T12:22:36.601Z,548.00
2023-04-01T12:23:36.594Z,492.00
2023-04-01T12:24:36.591Z,544.00
2023-04-01T12:25:36.588Z,608.00
2023-04-01T12:26:36.569Z,572.00
2023-04-01T12:27:36.561Z,668.00
2023-04-01T12:28:36.544Z,684.00
2023-04-01T12:29:36.527Z,708.00
2023-04-01T12:30:36.535Z,740.00
2023-04-01T12:31:36.547Z,812.00
2023-04-01T12:32:36.531Z,812.00
2023-04-01T12:33:38.010Z,1016.00
2023-04-01T12:34:36.494Z,1012.00
2023-04-01T12:35:36.650Z,1044.00
2023-04-01T12:36:36.456Z,1096.00
2023-04-01T12:37:36.446Z,1048.00
2023-04-01T12:38:36.423Z,1048.00
2023-04-01T12:39:36.414Z,1020.00
2023-04-01T12:40:36.402Z,884.00
2023-04-01T12:41:36.396Z,952.00
2023-04-01T12:42:36.385Z,884.00
2023-04-01T12:43:36.364Z,780.00
2023-04-01T12:44:36.401Z,848.00
2023-04-01T12:45:36.621Z,764.00